sensor_id;sensor_type;location;lat;lon;timestamp;P1;durP1;ratioP1;P2;durP2;ratioP2
14118;SDS011;7138;49.246;9.100;2024-02-14T00:02:09;10.68;;;5.93;;
14118;SDS011;7138;49.246;9.100;2024-02-14T00:04:35;8.82;;;5.47;;
14118;SDS011;7138;49.246;9.100;2024-02-14T00:07:01;10.73;;;5.93;;
14118;SDS011;7138;49.246;9.100;2024-02-14T00:09:28;10.48;;;6.22;;
14118;SDS011;7138;49.246;9.100;2024-02-14T00:11:54;11.38;;;6.03;;
14118;SDS011;7138;49.246;9.100;2024-02-14T00:14:20;10.50;;;6.32;;
14118;SDS011;7138;49.246;9.100;2024-02-14T00:16:46;12.45;;;6.32;;
14118;SDS011;7138;49.246;9.100;2024-02-14T00:19:11;10.95;;;6.70;;
14118;SDS011;7138;49.246;9.100;2024-02-14T00:21:38;12.27;;;6.45;;
14118;SDS011;7138;49.246;9.100;2024-02-14T00:24:04;9.23;;;5.97;;
14118;SDS011;7138;49.246;9.100;2024-02-14T00:26:32;9.50;;;6.30;;
14118;SDS011;7138;49.246;9.100;2024-02-14T00:28:58;9.70;;;6.28;;
14118;SDS011;7138;49.246;9.100;2024-02-14T00:31:24;8.75;;;6.18;;
14118;SDS011;7138;49.246;9.100;2024-02-14T00:33:50;9.13;;;6.28;;
14118;SDS011;7138;49.246;9.100;2024-02-14T00:36:16;10.35;;;6.07;;
14118;SDS011;7138;49.246;9.100;2024-02-14T00:38:42;9.85;;;6.30;;
14118;SDS011;7138;49.246;9.100;2024-02-14T00:41:10;8.90;;;6.30;;
14118;SDS011;7138;49.246;9.100;2024-02-14T00:43:37;11.18;;;6.43;;
14118;SDS011;7138;49.246;9.100;2024-02-14T00:46:03;9.30;;;6.88;;
14118;SDS011;7138;49.246;9.100;2024-02-14T00:48:30;12.05;;;7.00;;
14118;SDS011;7138;49.246;9.100;2024-02-14T00:50:57;9.55;;;6.47;;
14118;SDS011;7138;49.246;9.100;2024-02-14T00:53:24;13.07;;;7.05;;
14118;SDS011;7138;49.246;9.100;2024-02-14T00:55:50;11.52;;;7.15;;
14118;SDS011;7138;49.246;9.100;2024-02-14T00:58:16;12.75;;;6.63;;
14118;SDS011;7138;49.246;9.100;2024-02-14T01:00:43;11.25;;;7.00;;
14118;SDS011;7138;49.246;9.100;2024-02-14T01:03:09;12.30;;;7.22;;
14118;SDS011;7138;49.246;9.100;2024-02-14T01:05:37;12.55;;;7.25;;
14118;SDS011;7138;49.246;9.100;2024-02-14T01:08:04;10.13;;;6.60;;
14118;SDS011;7138;49.246;9.100;2024-02-14T01:10:30;10.38;;;6.68;;
14118;SDS011;7138;49.246;9.100;2024-02-14T01:12:56;11.02;;;6.22;;
14118;SDS011;7138;49.246;9.100;2024-02-14T01:15:22;11.05;;;7.15;;
14118;SDS011;7138;49.246;9.100;2024-02-14T01:17:49;9.63;;;6.70;;
14118;SDS011;7138;49.246;9.100;2024-02-14T01:20:15;10.73;;;7.00;;
14118;SDS011;7138;49.246;9.100;2024-02-14T01:22:40;10.82;;;7.15;;
14118;SDS011;7138;49.246;9.100;2024-02-14T01:25:07;9.02;;;6.10;;
14118;SDS011;7138;49.246;9.100;2024-02-14T01:27:35;9.85;;;6.30;;
14118;SDS011;7138;49.246;9.100;2024-02-14T01:30:01;10.00;;;6.93;;
14118;SDS011;7138;49.246;9.100;2024-02-14T01:32:27;12.50;;;6.90;;
14118;SDS011;7138;49.246;9.100;2024-02-14T01:34:56;9.40;;;6.13;;
14118;SDS011;7138;49.246;9.100;2024-02-14T01:37:21;12.10;;;7.65;;
14118;SDS011;7138;49.246;9.100;2024-02-14T01:39:47;11.23;;;6.65;;
14118;SDS011;7138;49.246;9.100;2024-02-14T01:42:13;9.95;;;6.75;;
14118;SDS011;7138;49.246;9.100;2024-02-14T01:44:39;10.90;;;6.45;;
14118;SDS011;7138;49.246;9.100;2024-02-14T01:47:05;9.80;;;6.32;;
14118;SDS011;7138;49.246;9.100;2024-02-14T01:49:31;11.70;;;7.18;;
14118;SDS011;7138;49.246;9.100;2024-02-14T01:52:01;9.90;;;6.57;;
14118;SDS011;7138;49.246;9.100;2024-02-14T01:54:29;9.55;;;6.43;;
14118;SDS011;7138;49.246;9.100;2024-02-14T01:56:55;12.55;;;6.38;;
14118;SDS011;7138;49.246;9.100;2024-02-14T01:59:23;10.60;;;6.43;;
14118;SDS011;7138;49.246;9.100;2024-02-14T02:01:50;11.30;;;6.53;;
14118;SDS011;7138;49.246;9.100;2024-02-14T02:04:17;12.10;;;6.72;;
14118;SDS011;7138;49.246;9.100;2024-02-14T02:06:43;10.15;;;6.82;;
14118;SDS011;7138;49.246;9.100;2024-02-14T02:09:10;10.15;;;6.60;;
14118;SDS011;7138;49.246;9.100;2024-02-14T02:11:42;10.27;;;6.88;;
14118;SDS011;7138;49.246;9.100;2024-02-14T02:14:10;9.90;;;6.30;;
14118;SDS011;7138;49.246;9.100;2024-02-14T02:16:37;9.23;;;6.07;;
14118;SDS011;7138;49.246;9.100;2024-02-14T02:19:03;11.75;;;6.63;;
14118;SDS011;7138;49.246;9.100;2024-02-14T02:24:01;10.55;;;6.13;;
14118;SDS011;7138;49.246;9.100;2024-02-14T02:26:28;11.38;;;6.40;;
14118;SDS011;7138;49.246;9.100;2024-02-14T02:28:54;13.02;;;6.57;;
14118;SDS011;7138;49.246;9.100;2024-02-14T02:31:20;9.25;;;5.82;;
14118;SDS011;7138;49.246;9.100;2024-02-14T02:33:46;10.55;;;6.28;;
14118;SDS011;7138;49.246;9.100;2024-02-14T02:36:12;13.10;;;6.28;;
14118;SDS011;7138;49.246;9.100;2024-02-14T02:38:38;10.57;;;6.13;;
14118;SDS011;7138;49.246;9.100;2024-02-14T02:41:05;10.68;;;6.68;;
14118;SDS011;7138;49.246;9.100;2024-02-14T02:43:31;10.93;;;6.75;;
14118;SDS011;7138;49.246;9.100;2024-02-14T02:45:57;11.18;;;6.82;;
14118;SDS011;7138;49.246;9.100;2024-02-14T02:48:23;12.00;;;6.85;;
14118;SDS011;7138;49.246;9.100;2024-02-14T02:50:49;10.57;;;6.43;;
14118;SDS011;7138;49.246;9.100;2024-02-14T02:53:16;10.10;;;6.28;;
14118;SDS011;7138;49.246;9.100;2024-02-14T02:55:43;9.75;;;6.45;;
14118;SDS011;7138;49.246;9.100;2024-02-14T02:58:10;10.98;;;6.78;;
14118;SDS011;7138;49.246;9.100;2024-02-14T03:00:36;10.85;;;6.15;;
14118;SDS011;7138;49.246;9.100;2024-02-14T03:03:02;10.02;;;6.43;;
14118;SDS011;7138;49.246;9.100;2024-02-14T03:05:33;9.10;;;5.88;;
14118;SDS011;7138;49.246;9.100;2024-02-14T03:07:59;11.13;;;6.65;;
14118;SDS011;7138;49.246;9.100;2024-02-14T03:10:25;9.52;;;5.65;;
14118;SDS011;7138;49.246;9.100;2024-02-14T03:12:51;10.63;;;5.95;;
14118;SDS011;7138;49.246;9.100;2024-02-14T03:15:18;10.13;;;5.75;;
14118;SDS011;7138;49.246;9.100;2024-02-14T03:17:44;8.75;;;5.88;;
14118;SDS011;7138;49.246;9.100;2024-02-14T03:20:11;8.68;;;5.80;;
14118;SDS011;7138;49.246;9.100;2024-02-14T03:22:38;9.73;;;5.47;;
14118;SDS011;7138;49.246;9.100;2024-02-14T03:25:09;10.05;;;5.72;;
14118;SDS011;7138;49.246;9.100;2024-02-14T03:27:38;9.38;;;5.47;;
14118;SDS011;7138;49.246;9.100;2024-02-14T03:30:05;11.13;;;6.35;;
14118;SDS011;7138;49.246;9.100;2024-02-14T03:32:33;10.10;;;5.45;;
14118;SDS011;7138;49.246;9.100;2024-02-14T03:35:00;9.32;;;5.40;;
14118;SDS011;7138;49.246;9.100;2024-02-14T03:37:25;12.05;;;5.05;;
14118;SDS011;7138;49.246;9.100;2024-02-14T03:39:52;7.78;;;4.75;;
14118;SDS011;7138;49.246;9.100;2024-02-14T03:42:17;10.13;;;5.03;;
14118;SDS011;7138;49.246;9.100;2024-02-14T03:44:44;7.78;;;4.80;;
14118;SDS011;7138;49.246;9.100;2024-02-14T03:47:10;7.63;;;4.18;;
14118;SDS011;7138;49.246;9.100;2024-02-14T03:49:39;9.93;;;4.60;;
14118;SDS011;7138;49.246;9.100;2024-02-14T03:52:06;7.55;;;4.70;;
14118;SDS011;7138;49.246;9.100;2024-02-14T03:54:34;8.50;;;4.67;;
14118;SDS011;7138;49.246;9.100;2024-02-14T03:57:00;7.47;;;4.45;;
14118;SDS011;7138;49.246;9.100;2024-02-14T03:59:26;7.05;;;4.60;;
14118;SDS011;7138;49.246;9.100;2024-02-14T04:01:52;10.15;;;4.90;;
14118;SDS011;7138;49.246;9.100;2024-02-14T04:04:18;8.68;;;4.35;;
14118;SDS011;7138;49.246;9.100;2024-02-14T04:06:45;9.30;;;4.28;;
14118;SDS011;7138;49.246;9.100;2024-02-14T04:09:11;8.55;;;4.55;;
14118;SDS011;7138;49.246;9.100;2024-02-14T04:11:37;12.07;;;4.57;;
14118;SDS011;7138;49.246;9.100;2024-02-14T04:14:03;6.72;;;4.05;;
14118;SDS011;7138;49.246;9.100;2024-02-14T04:16:29;7.40;;;3.97;;
14118;SDS011;7138;49.246;9.100;2024-02-14T04:18:55;10.40;;;4.60;;
14118;SDS011;7138;49.246;9.100;2024-02-14T04:21:21;8.52;;;4.32;;
14118;SDS011;7138;49.246;9.100;2024-02-14T04:23:48;8.00;;;4.40;;
14118;SDS011;7138;49.246;9.100;2024-02-14T04:26:18;6.97;;;4.10;;
14118;SDS011;7138;49.246;9.100;2024-02-14T04:28:45;8.30;;;4.00;;
14118;SDS011;7138;49.246;9.100;2024-02-14T04:31:10;9.73;;;4.15;;
14118;SDS011;7138;49.246;9.100;2024-02-14T04:33:36;6.50;;;3.78;;
14118;SDS011;7138;49.246;9.100;2024-02-14T04:36:02;7.35;;;4.13;;
14118;SDS011;7138;49.246;9.100;2024-02-14T04:38:30;7.10;;;3.83;;
14118;SDS011;7138;49.246;9.100;2024-02-14T04:40:57;8.95;;;3.88;;
14118;SDS011;7138;49.246;9.100;2024-02-14T04:43:23;11.15;;;4.05;;
14118;SDS011;7138;49.246;9.100;2024-02-14T04:45:49;7.18;;;3.83;;
14118;SDS011;7138;49.246;9.100;2024-02-14T04:48:15;10.73;;;3.75;;
14118;SDS011;7138;49.246;9.100;2024-02-14T04:50:41;7.80;;;4.07;;
14118;SDS011;7138;49.246;9.100;2024-02-14T04:53:07;7.65;;;4.00;;
14118;SDS011;7138;49.246;9.100;2024-02-14T04:55:33;8.35;;;4.20;;
14118;SDS011;7138;49.246;9.100;2024-02-14T04:58:00;10.15;;;4.38;;
14118;SDS011;7138;49.246;9.100;2024-02-14T05:00:26;10.55;;;4.70;;
14118;SDS011;7138;49.246;9.100;2024-02-14T05:02:52;8.30;;;4.22;;
14118;SDS011;7138;49.246;9.100;2024-02-14T05:05:18;7.68;;;4.68;;
14118;SDS011;7138;49.246;9.100;2024-02-14T05:07:45;9.10;;;4.43;;
14118;SDS011;7138;49.246;9.100;2024-02-14T05:10:11;7.90;;;4.13;;
14118;SDS011;7138;49.246;9.100;2024-02-14T05:12:37;7.78;;;3.47;;
14118;SDS011;7138;49.246;9.100;2024-02-14T05:15:06;9.40;;;3.60;;
14118;SDS011;7138;49.246;9.100;2024-02-14T05:17:34;7.50;;;4.22;;
14118;SDS011;7138;49.246;9.100;2024-02-14T05:20:00;8.70;;;3.95;;
14118;SDS011;7138;49.246;9.100;2024-02-14T05:22:26;7.60;;;3.97;;
14118;SDS011;7138;49.246;9.100;2024-02-14T05:24:52;9.45;;;4.03;;
14118;SDS011;7138;49.246;9.100;2024-02-14T05:27:18;8.57;;;4.38;;
14118;SDS011;7138;49.246;9.100;2024-02-14T05:29:44;6.68;;;3.95;;
14118;SDS011;7138;49.246;9.100;2024-02-14T05:32:11;9.38;;;4.40;;
14118;SDS011;7138;49.246;9.100;2024-02-14T05:34:37;8.20;;;4.22;;
14118;SDS011;7138;49.246;9.100;2024-02-14T05:37:03;8.80;;;4.28;;
14118;SDS011;7138;49.246;9.100;2024-02-14T05:39:30;8.75;;;4.53;;
14118;SDS011;7138;49.246;9.100;2024-02-14T05:41:56;8.82;;;4.13;;
14118;SDS011;7138;49.246;9.100;2024-02-14T05:44:22;9.38;;;4.10;;
14118;SDS011;7138;49.246;9.100;2024-02-14T05:46:48;10.70;;;3.97;;
14118;SDS011;7138;49.246;9.100;2024-02-14T05:49:15;8.15;;;4.00;;
14118;SDS011;7138;49.246;9.100;2024-02-14T05:51:41;9.60;;;3.67;;
14118;SDS011;7138;49.246;9.100;2024-02-14T05:54:06;6.93;;;3.95;;
14118;SDS011;7138;49.246;9.100;2024-02-14T05:56:32;7.50;;;3.85;;
14118;SDS011;7138;49.246;9.100;2024-02-14T05:58:58;10.30;;;4.53;;
14118;SDS011;7138;49.246;9.100;2024-02-14T06:01:24;10.40;;;4.85;;
14118;SDS011;7138;49.246;9.100;2024-02-14T06:03:50;11.40;;;5.68;;
14118;SDS011;7138;49.246;9.100;2024-02-14T06:06:17;9.75;;;4.35;;
14118;SDS011;7138;49.246;9.100;2024-02-14T06:08:43;7.30;;;4.25;;
14118;SDS011;7138;49.246;9.100;2024-02-14T06:11:09;9.05;;;4.07;;
14118;SDS011;7138;49.246;9.100;2024-02-14T06:13:35;8.70;;;3.75;;
14118;SDS011;7138;49.246;9.100;2024-02-14T06:16:01;6.68;;;3.50;;
14118;SDS011;7138;49.246;9.100;2024-02-14T06:18:27;7.97;;;3.70;;
14118;SDS011;7138;49.246;9.100;2024-02-14T06:20:53;6.68;;;3.83;;
14118;SDS011;7138;49.246;9.100;2024-02-14T06:23:20;7.32;;;3.92;;
14118;SDS011;7138;49.246;9.100;2024-02-14T06:25:46;7.32;;;3.60;;
14118;SDS011;7138;49.246;9.100;2024-02-14T06:28:11;8.10;;;4.00;;
14118;SDS011;7138;49.246;9.100;2024-02-14T06:30:37;8.48;;;3.95;;
14118;SDS011;7138;49.246;9.100;2024-02-14T06:33:03;8.38;;;3.90;;
14118;SDS011;7138;49.246;9.100;2024-02-14T06:35:29;9.80;;;3.95;;
14118;SDS011;7138;49.246;9.100;2024-02-14T06:37:55;6.30;;;3.75;;
14118;SDS011;7138;49.246;9.100;2024-02-14T06:40:22;8.18;;;3.83;;
14118;SDS011;7138;49.246;9.100;2024-02-14T06:42:49;7.90;;;3.45;;
14118;SDS011;7138;49.246;9.100;2024-02-14T06:45:15;7.82;;;4.43;;
14118;SDS011;7138;49.246;9.100;2024-02-14T06:47:42;11.27;;;5.05;;
14118;SDS011;7138;49.246;9.100;2024-02-14T06:50:08;10.93;;;5.13;;
14118;SDS011;7138;49.246;9.100;2024-02-14T06:52:34;9.32;;;4.88;;
14118;SDS011;7138;49.246;9.100;2024-02-14T06:55:00;8.38;;;4.40;;
14118;SDS011;7138;49.246;9.100;2024-02-14T06:57:30;6.65;;;3.42;;
14118;SDS011;7138;49.246;9.100;2024-02-14T06:59:56;7.20;;;3.65;;
14118;SDS011;7138;49.246;9.100;2024-02-14T07:02:21;7.93;;;3.42;;
14118;SDS011;7138;49.246;9.100;2024-02-14T07:04:47;8.82;;;3.60;;
14118;SDS011;7138;49.246;9.100;2024-02-14T07:07:14;9.73;;;3.97;;
14118;SDS011;7138;49.246;9.100;2024-02-14T07:09:40;6.90;;;3.47;;
14118;SDS011;7138;49.246;9.100;2024-02-14T07:12:06;9.50;;;3.50;;
14118;SDS011;7138;49.246;9.100;2024-02-14T07:14:33;6.20;;;3.60;;
14118;SDS011;7138;49.246;9.100;2024-02-14T07:16:59;7.45;;;3.63;;
14118;SDS011;7138;49.246;9.100;2024-02-14T07:19:25;7.43;;;3.60;;
14118;SDS011;7138;49.246;9.100;2024-02-14T07:21:51;7.10;;;3.72;;
14118;SDS011;7138;49.246;9.100;2024-02-14T07:24:17;7.63;;;3.65;;
14118;SDS011;7138;49.246;9.100;2024-02-14T07:26:43;7.13;;;3.35;;
14118;SDS011;7138;49.246;9.100;2024-02-14T07:29:09;6.80;;;3.90;;
14118;SDS011;7138;49.246;9.100;2024-02-14T07:31:37;11.10;;;5.32;;
14118;SDS011;7138;49.246;9.100;2024-02-14T07:34:02;13.50;;;5.30;;
14118;SDS011;7138;49.246;9.100;2024-02-14T07:36:28;11.13;;;5.40;;
14118;SDS011;7138;49.246;9.100;2024-02-14T07:38:54;9.43;;;5.32;;
14118;SDS011;7138;49.246;9.100;2024-02-14T07:41:20;9.05;;;4.38;;
14118;SDS011;7138;49.246;9.100;2024-02-14T07:43:46;6.40;;;3.60;;
14118;SDS011;7138;49.246;9.100;2024-02-14T07:46:16;8.45;;;3.70;;
14118;SDS011;7138;49.246;9.100;2024-02-14T07:48:44;7.93;;;3.78;;
14118;SDS011;7138;49.246;9.100;2024-02-14T07:51:11;6.97;;;3.78;;
14118;SDS011;7138;49.246;9.100;2024-02-14T07:53:37;6.97;;;3.95;;
14118;SDS011;7138;49.246;9.100;2024-02-14T07:56:03;9.30;;;4.85;;
14118;SDS011;7138;49.246;9.100;2024-02-14T07:58:29;12.30;;;5.25;;
14118;SDS011;7138;49.246;9.100;2024-02-14T08:00:55;8.93;;;4.97;;
14118;SDS011;7138;49.246;9.100;2024-02-14T08:03:21;12.02;;;5.22;;
14118;SDS011;7138;49.246;9.100;2024-02-14T08:05:48;9.05;;;4.80;;
14118;SDS011;7138;49.246;9.100;2024-02-14T08:08:14;9.77;;;4.85;;
14118;SDS011;7138;49.246;9.100;2024-02-14T08:10:40;12.98;;;4.95;;
14118;SDS011;7138;49.246;9.100;2024-02-14T08:13:05;7.15;;;4.47;;
14118;SDS011;7138;49.246;9.100;2024-02-14T08:15:31;9.25;;;4.88;;
14118;SDS011;7138;49.246;9.100;2024-02-14T08:17:57;9.88;;;4.47;;
14118;SDS011;7138;49.246;9.100;2024-02-14T08:20:24;7.13;;;4.28;;
14118;SDS011;7138;49.246;9.100;2024-02-14T08:22:51;8.10;;;3.78;;
14118;SDS011;7138;49.246;9.100;2024-02-14T08:25:17;5.38;;;2.30;;
14118;SDS011;7138;49.246;9.100;2024-02-14T08:27:43;7.78;;;2.22;;
14118;SDS011;7138;49.246;9.100;2024-02-14T08:30:09;5.82;;;2.03;;
14118;SDS011;7138;49.246;9.100;2024-02-14T08:32:37;7.60;;;1.95;;
14118;SDS011;7138;49.246;9.100;2024-02-14T08:35:03;5.32;;;2.10;;
14118;SDS011;7138;49.246;9.100;2024-02-14T08:37:29;5.25;;;2.10;;
14118;SDS011;7138;49.246;9.100;2024-02-14T08:39:57;6.45;;;1.80;;
14118;SDS011;7138;49.246;9.100;2024-02-14T08:42:23;5.05;;;1.58;;
14118;SDS011;7138;49.246;9.100;2024-02-14T08:44:49;4.13;;;1.80;;
14118;SDS011;7138;49.246;9.100;2024-02-14T08:47:15;4.32;;;1.60;;
14118;SDS011;7138;49.246;9.100;2024-02-14T08:49:41;5.47;;;1.70;;
14118;SDS011;7138;49.246;9.100;2024-02-14T08:52:07;3.75;;;1.40;;
14118;SDS011;7138;49.246;9.100;2024-02-14T08:54:33;3.95;;;1.63;;
14118;SDS011;7138;49.246;9.100;2024-02-14T08:57:01;3.53;;;1.55;;
14118;SDS011;7138;49.246;9.100;2024-02-14T08:59:27;4.60;;;1.70;;
14118;SDS011;7138;49.246;9.100;2024-02-14T09:01:54;6.57;;;1.90;;
14118;SDS011;7138;49.246;9.100;2024-02-14T09:04:19;4.82;;;1.40;;
14118;SDS011;7138;49.246;9.100;2024-02-14T09:06:45;4.88;;;1.77;;
14118;SDS011;7138;49.246;9.100;2024-02-14T09:09:11;4.10;;;1.70;;
14118;SDS011;7138;49.246;9.100;2024-02-14T09:11:40;4.50;;;1.33;;
14118;SDS011;7138;49.246;9.100;2024-02-14T09:14:08;5.75;;;1.70;;
14118;SDS011;7138;49.246;9.100;2024-02-14T09:16:35;4.85;;;2.22;;
14118;SDS011;7138;49.246;9.100;2024-02-14T09:19:02;5.53;;;2.35;;
14118;SDS011;7138;49.246;9.100;2024-02-14T09:21:30;5.72;;;1.90;;
14118;SDS011;7138;49.246;9.100;2024-02-14T09:23:58;4.95;;;1.60;;
14118;SDS011;7138;49.246;9.100;2024-02-14T09:26:24;4.65;;;1.67;;
14118;SDS011;7138;49.246;9.100;2024-02-14T09:28:50;6.72;;;1.77;;
14118;SDS011;7138;49.246;9.100;2024-02-14T09:31:20;5.47;;;2.00;;
14118;SDS011;7138;49.246;9.100;2024-02-14T09:33:46;7.20;;;1.90;;
14118;SDS011;7138;49.246;9.100;2024-02-14T09:36:13;4.43;;;1.50;;
14118;SDS011;7138;49.246;9.100;2024-02-14T09:38:42;5.13;;;1.90;;
14118;SDS011;7138;49.246;9.100;2024-02-14T09:41:11;6.22;;;1.70;;
14118;SDS011;7138;49.246;9.100;2024-02-14T09:43:43;4.70;;;1.67;;
14118;SDS011;7138;49.246;9.100;2024-02-14T09:46:11;6.93;;;1.85;;
14118;SDS011;7138;49.246;9.100;2024-02-14T09:48:41;4.40;;;1.52;;
14118;SDS011;7138;49.246;9.100;2024-02-14T09:51:10;4.15;;;1.73;;
14118;SDS011;7138;49.246;9.100;2024-02-14T09:53:37;4.22;;;1.70;;
14118;SDS011;7138;49.246;9.100;2024-02-14T09:56:04;6.05;;;1.88;;
14118;SDS011;7138;49.246;9.100;2024-02-14T09:58:33;3.95;;;1.65;;
14118;SDS011;7138;49.246;9.100;2024-02-14T10:01:01;4.90;;;1.67;;
14118;SDS011;7138;49.246;9.100;2024-02-14T10:03:27;6.68;;;1.80;;
14118;SDS011;7138;49.246;9.100;2024-02-14T10:05:54;6.75;;;1.92;;
14118;SDS011;7138;49.246;9.100;2024-02-14T10:08:20;6.10;;;1.85;;
14118;SDS011;7138;49.246;9.100;2024-02-14T10:10:47;6.50;;;2.38;;
14118;SDS011;7138;49.246;9.100;2024-02-14T10:13:15;4.88;;;1.70;;
14118;SDS011;7138;49.246;9.100;2024-02-14T10:15:41;6.32;;;1.38;;
14118;SDS011;7138;49.246;9.100;2024-02-14T10:18:07;4.15;;;1.60;;
14118;SDS011;7138;49.246;9.100;2024-02-14T10:20:34;5.70;;;1.60;;
14118;SDS011;7138;49.246;9.100;2024-02-14T10:23:07;5.07;;;1.77;;
14118;SDS011;7138;49.246;9.100;2024-02-14T10:25:35;5.78;;;1.60;;
14118;SDS011;7138;49.246;9.100;2024-02-14T10:28:03;6.47;;;1.42;;
14118;SDS011;7138;49.246;9.100;2024-02-14T10:30:33;4.88;;;1.40;;
14118;SDS011;7138;49.246;9.100;2024-02-14T10:33:01;5.40;;;1.60;;
14118;SDS011;7138;49.246;9.100;2024-02-14T10:35:28;4.75;;;1.45;;
14118;SDS011;7138;49.246;9.100;2024-02-14T10:37:57;6.95;;;1.75;;
14118;SDS011;7138;49.246;9.100;2024-02-14T10:40:27;4.03;;;1.60;;
14118;SDS011;7138;49.246;9.100;2024-02-14T10:42:54;5.32;;;1.38;;
14118;SDS011;7138;49.246;9.100;2024-02-14T10:45:20;4.50;;;1.40;;
14118;SDS011;7138;49.246;9.100;2024-02-14T10:47:46;3.90;;;1.40;;
14118;SDS011;7138;49.246;9.100;2024-02-14T10:50:14;6.65;;;1.50;;
14118;SDS011;7138;49.246;9.100;2024-02-14T10:52:41;4.30;;;1.50;;
14118;SDS011;7138;49.246;9.100;2024-02-14T10:55:09;4.55;;;1.42;;
14118;SDS011;7138;49.246;9.100;2024-02-14T10:57:38;5.15;;;1.48;;
14118;SDS011;7138;49.246;9.100;2024-02-14T11:00:06;4.63;;;1.60;;
14118;SDS011;7138;49.246;9.100;2024-02-14T11:02:35;3.50;;;1.30;;
14118;SDS011;7138;49.246;9.100;2024-02-14T11:05:03;4.85;;;1.55;;
14118;SDS011;7138;49.246;9.100;2024-02-14T11:07:32;3.70;;;1.45;;
14118;SDS011;7138;49.246;9.100;2024-02-14T11:10:01;3.92;;;1.60;;
14118;SDS011;7138;49.246;9.100;2024-02-14T11:12:32;5.53;;;1.80;;
14118;SDS011;7138;49.246;9.100;2024-02-14T11:15:01;6.22;;;1.70;;
14118;SDS011;7138;49.246;9.100;2024-02-14T11:17:34;5.88;;;1.88;;
14118;SDS011;7138;49.246;9.100;2024-02-14T11:20:11;5.72;;;1.75;;
14118;SDS011;7138;49.246;9.100;2024-02-14T11:22:49;7.05;;;2.00;;
14118;SDS011;7138;49.246;9.100;2024-02-14T11:25:22;3.30;;;1.63;;
14118;SDS011;7138;49.246;9.100;2024-02-14T11:27:54;3.42;;;1.50;;
14118;SDS011;7138;49.246;9.100;2024-02-14T11:30:33;7.22;;;1.73;;
14118;SDS011;7138;49.246;9.100;2024-02-14T11:33:09;4.30;;;1.80;;
14118;SDS011;7138;49.246;9.100;2024-02-14T11:35:39;4.88;;;1.60;;
14118;SDS011;7138;49.246;9.100;2024-02-14T11:38:06;6.63;;;1.73;;
14118;SDS011;7138;49.246;9.100;2024-02-14T11:40:32;6.53;;;1.85;;
14118;SDS011;7138;49.246;9.100;2024-02-14T11:42:58;5.10;;;1.70;;
14118;SDS011;7138;49.246;9.100;2024-02-14T11:45:24;5.30;;;1.80;;
14118;SDS011;7138;49.246;9.100;2024-02-14T11:47:51;5.20;;;1.58;;
14118;SDS011;7138;49.246;9.100;2024-02-14T11:50:17;5.13;;;1.52;;
14118;SDS011;7138;49.246;9.100;2024-02-14T11:52:43;4.30;;;1.50;;
14118;SDS011;7138;49.246;9.100;2024-02-14T11:55:10;5.70;;;1.80;;
14118;SDS011;7138;49.246;9.100;2024-02-14T11:57:39;4.80;;;1.50;;
14118;SDS011;7138;49.246;9.100;2024-02-14T12:00:06;4.95;;;1.58;;
14118;SDS011;7138;49.246;9.100;2024-02-14T12:02:33;3.83;;;1.30;;
14118;SDS011;7138;49.246;9.100;2024-02-14T12:05:02;5.28;;;1.55;;
14118;SDS011;7138;49.246;9.100;2024-02-14T12:07:30;4.38;;;1.58;;
14118;SDS011;7138;49.246;9.100;2024-02-14T12:09:56;3.78;;;1.50;;
14118;SDS011;7138;49.246;9.100;2024-02-14T12:12:22;4.38;;;1.38;;
14118;SDS011;7138;49.246;9.100;2024-02-14T12:14:51;3.85;;;1.48;;
14118;SDS011;7138;49.246;9.100;2024-02-14T12:17:17;3.42;;;1.30;;
14118;SDS011;7138;49.246;9.100;2024-02-14T12:19:44;3.33;;;1.30;;
14118;SDS011;7138;49.246;9.100;2024-02-14T12:22:11;5.55;;;1.23;;
14118;SDS011;7138;49.246;9.100;2024-02-14T12:24:42;4.25;;;1.33;;
14118;SDS011;7138;49.246;9.100;2024-02-14T12:27:08;5.72;;;1.40;;
14118;SDS011;7138;49.246;9.100;2024-02-14T12:29:34;3.55;;;1.45;;
14118;SDS011;7138;49.246;9.100;2024-02-14T12:32:04;2.80;;;1.10;;
14118;SDS011;7138;49.246;9.100;2024-02-14T12:34:31;3.30;;;1.30;;
14118;SDS011;7138;49.246;9.100;2024-02-14T12:36:58;5.13;;;1.30;;
14118;SDS011;7138;49.246;9.100;2024-02-14T12:39:26;4.63;;;1.38;;
14118;SDS011;7138;49.246;9.100;2024-02-14T12:41:52;4.00;;;1.20;;
14118;SDS011;7138;49.246;9.100;2024-02-14T12:44:18;3.10;;;0.90;;
14118;SDS011;7138;49.246;9.100;2024-02-14T12:46:44;3.80;;;1.33;;
14118;SDS011;7138;49.246;9.100;2024-02-14T12:49:10;5.35;;;1.40;;
14118;SDS011;7138;49.246;9.100;2024-02-14T12:51:36;4.57;;;1.25;;
14118;SDS011;7138;49.246;9.100;2024-02-14T12:54:03;3.53;;;1.30;;
14118;SDS011;7138;49.246;9.100;2024-02-14T12:56:31;4.28;;;1.33;;
14118;SDS011;7138;49.246;9.100;2024-02-14T12:58:57;3.13;;;1.00;;
14118;SDS011;7138;49.246;9.100;2024-02-14T13:01:24;3.03;;;1.20;;
14118;SDS011;7138;49.246;9.100;2024-02-14T13:03:50;3.38;;;1.10;;
14118;SDS011;7138;49.246;9.100;2024-02-14T13:06:16;3.60;;;1.10;;
14118;SDS011;7138;49.246;9.100;2024-02-14T13:08:42;3.80;;;1.40;;
14118;SDS011;7138;49.246;9.100;2024-02-14T13:11:08;4.72;;;1.30;;
14118;SDS011;7138;49.246;9.100;2024-02-14T13:13:35;3.70;;;1.00;;
14118;SDS011;7138;49.246;9.100;2024-02-14T13:16:01;2.92;;;1.10;;
14118;SDS011;7138;49.246;9.100;2024-02-14T13:18:27;3.35;;;1.10;;
14118;SDS011;7138;49.246;9.100;2024-02-14T13:20:53;4.03;;;1.00;;
14118;SDS011;7138;49.246;9.100;2024-02-14T13:23:24;4.28;;;1.20;;
14118;SDS011;7138;49.246;9.100;2024-02-14T13:25:50;3.83;;;0.90;;
14118;SDS011;7138;49.246;9.100;2024-02-14T13:28:16;3.40;;;1.10;;
14118;SDS011;7138;49.246;9.100;2024-02-14T13:30:43;3.20;;;1.20;;
14118;SDS011;7138;49.246;9.100;2024-02-14T13:33:09;3.17;;;1.10;;
14118;SDS011;7138;49.246;9.100;2024-02-14T13:35:36;2.58;;;0.93;;
14118;SDS011;7138;49.246;9.100;2024-02-14T13:38:03;2.60;;;1.20;;
14118;SDS011;7138;49.246;9.100;2024-02-14T13:40:30;3.70;;;1.30;;
14118;SDS011;7138;49.246;9.100;2024-02-14T13:42:56;4.47;;;1.20;;
14118;SDS011;7138;49.246;9.100;2024-02-14T13:45:22;2.72;;;1.00;;
14118;SDS011;7138;49.246;9.100;2024-02-14T13:47:50;4.85;;;1.23;;
14118;SDS011;7138;49.246;9.100;2024-02-14T13:50:27;4.70;;;1.17;;
14118;SDS011;7138;49.246;9.100;2024-02-14T13:52:53;3.40;;;1.10;;
14118;SDS011;7138;49.246;9.100;2024-02-14T13:55:19;3.10;;;0.85;;
14118;SDS011;7138;49.246;9.100;2024-02-14T13:57:45;2.63;;;1.00;;
14118;SDS011;7138;49.246;9.100;2024-02-14T14:00:11;3.00;;;1.20;;
14118;SDS011;7138;49.246;9.100;2024-02-14T14:02:38;2.70;;;1.05;;
14118;SDS011;7138;49.246;9.100;2024-02-14T14:05:07;3.17;;;1.30;;
14118;SDS011;7138;49.246;9.100;2024-02-14T14:07:34;3.35;;;1.30;;
14118;SDS011;7138;49.246;9.100;2024-02-14T14:10:01;5.38;;;1.17;;
14118;SDS011;7138;49.246;9.100;2024-02-14T14:12:27;3.70;;;1.10;;
14118;SDS011;7138;49.246;9.100;2024-02-14T14:14:53;3.40;;;0.98;;
14118;SDS011;7138;49.246;9.100;2024-02-14T14:17:19;4.03;;;1.20;;
14118;SDS011;7138;49.246;9.100;2024-02-14T14:19:45;2.92;;;1.10;;
14118;SDS011;7138;49.246;9.100;2024-02-14T14:22:12;2.92;;;1.20;;
14118;SDS011;7138;49.246;9.100;2024-02-14T14:24:39;3.50;;;1.30;;
14118;SDS011;7138;49.246;9.100;2024-02-14T14:27:05;3.72;;;1.10;;
14118;SDS011;7138;49.246;9.100;2024-02-14T14:29:33;2.72;;;1.10;;
14118;SDS011;7138;49.246;9.100;2024-02-14T14:31:59;3.08;;;1.20;;
14118;SDS011;7138;49.246;9.100;2024-02-14T14:34:26;3.90;;;1.10;;
14118;SDS011;7138;49.246;9.100;2024-02-14T14:36:55;3.15;;;1.13;;
14118;SDS011;7138;49.246;9.100;2024-02-14T14:39:22;4.82;;;1.60;;
14118;SDS011;7138;49.246;9.100;2024-02-14T14:41:48;6.05;;;1.90;;
14118;SDS011;7138;49.246;9.100;2024-02-14T14:44:13;3.90;;;1.60;;
14118;SDS011;7138;49.246;9.100;2024-02-14T14:46:39;3.38;;;1.50;;
14118;SDS011;7138;49.246;9.100;2024-02-14T14:49:07;3.53;;;1.75;;
14118;SDS011;7138;49.246;9.100;2024-02-14T14:51:34;7.55;;;1.45;;
14118;SDS011;7138;49.246;9.100;2024-02-14T14:54:00;6.47;;;1.75;;
14118;SDS011;7138;49.246;9.100;2024-02-14T14:56:27;3.30;;;1.30;;
14118;SDS011;7138;49.246;9.100;2024-02-14T14:58:54;4.28;;;1.50;;